createdAt,value
2022-08-19T00:01:30.393Z,20.29
2022-08-19T00:03:59.616Z,20.29
2022-08-19T00:06:28.308Z,20.29
2022-08-19T00:08:56.462Z,20.29
2022-08-19T00:11:25.737Z,20.14
2022-08-19T00:13:53.291Z,20.19
2022-08-19T00:16:25.335Z,20.29
2022-08-19T00:18:53.136Z,20.22
2022-08-19T00:21:19.833Z,20.27
2022-08-19T00:23:46.372Z,20.13
2022-08-19T00:26:13.040Z,20.11
2022-08-19T00:28:39.637Z,20.20
2022-08-19T00:31:07.797Z,20.14
2022-08-19T00:33:35.067Z,20.14
2022-08-19T00:36:04.698Z,20.21
2022-08-19T00:38:37.137Z,20.27
2022-08-19T00:41:06.063Z,20.17
2022-08-19T00:43:33.150Z,20.09
2022-08-19T00:46:00.044Z,20.26
2022-08-19T00:48:26.778Z,20.12
2022-08-19T00:50:56.843Z,20.21
2022-08-19T00:53:27.411Z,20.27
2022-08-19T00:55:57.838Z,20.11
2022-08-19T00:58:29.890Z,20.15
2022-08-19T01:00:56.916Z,20.19
2022-08-19T01:03:23.908Z,20.16
2022-08-19T01:05:53.034Z,20.09
2022-08-19T01:08:21.053Z,20.23
2022-08-19T01:10:57.457Z,20.16
2022-08-19T01:13:30.079Z,20.18
2022-08-19T01:16:18.721Z,20.19
2022-08-19T01:18:46.193Z,20.20
2022-08-19T01:21:39.056Z,20.17
2022-08-19T01:24:05.874Z,20.18
2022-08-19T01:26:32.608Z,19.87
2022-08-19T01:29:01.897Z,20.18
2022-08-19T01:31:33.446Z,19.93
2022-08-19T01:34:02.153Z,20.11
2022-08-19T01:36:30.781Z,20.18
2022-08-19T01:38:59.102Z,19.92
2022-08-19T01:41:25.838Z,20.10
2022-08-19T01:44:13.303Z,20.16
2022-08-19T01:46:41.538Z,20.15
2022-08-19T01:49:09.156Z,20.16
2022-08-19T01:51:39.797Z,19.98
2022-08-19T01:54:12.782Z,19.96
2022-08-19T01:56:39.596Z,20.05
2022-08-19T01:59:11.940Z,20.00
2022-08-19T02:01:39.049Z,20.19
2022-08-19T02:04:06.814Z,20.08
2022-08-19T02:06:34.180Z,20.11
2022-08-19T02:09:01.209Z,20.13
2022-08-19T02:11:32.592Z,20.25
2022-08-19T02:14:00.433Z,20.19
2022-08-19T02:16:27.004Z,20.28
2022-08-19T02:18:53.645Z,20.28
2022-08-19T02:21:23.051Z,20.30
2022-08-19T02:23:51.107Z,20.12
2022-08-19T02:26:19.886Z,20.31
2022-08-19T02:28:46.516Z,20.19
2022-08-19T02:31:18.548Z,20.33
2022-08-19T02:33:46.457Z,20.20
2022-08-19T02:36:15.445Z,20.07
2022-08-19T02:38:42.968Z,20.27
2022-08-19T02:41:19.062Z,20.13
2022-08-19T02:44:23.025Z,20.10
2022-08-19T02:46:34.017Z,20.15
2022-08-19T02:49:04.686Z,20.14
2022-08-19T02:51:37.414Z,20.07
2022-08-19T02:54:05.720Z,19.90
2022-08-19T02:56:35.575Z,19.91
2022-08-19T02:59:02.211Z,20.01
2022-08-19T03:01:32.094Z,19.93
2022-08-19T03:04:01.480Z,19.89
2022-08-19T03:06:28.739Z,19.99
2022-08-19T03:08:56.386Z,19.96
2022-08-19T03:11:31.354Z,19.84
2022-08-19T03:14:01.209Z,19.93
2022-08-19T03:16:29.849Z,19.84
2022-08-19T03:19:01.775Z,19.91
2022-08-19T03:21:32.067Z,19.90
2022-08-19T03:24:02.836Z,19.91
2022-08-19T03:26:30.435Z,19.90
2022-08-19T03:28:58.062Z,19.91
2022-08-19T03:31:44.115Z,19.91
2022-08-19T03:34:18.990Z,19.79
2022-08-19T03:36:45.851Z,19.89
2022-08-19T03:39:12.619Z,19.80
2022-08-19T03:41:45.465Z,19.91
2022-08-19T03:44:17.665Z,19.88
2022-08-19T03:46:44.890Z,19.84
2022-08-19T03:49:11.420Z,19.75
2022-08-19T03:51:42.615Z,19.64
2022-08-19T03:54:12.518Z,19.69
2022-08-19T03:56:40.402Z,19.65
2022-08-19T03:59:11.894Z,19.58
2022-08-19T04:01:38.624Z,19.62
2022-08-19T04:04:05.859Z,19.46
2022-08-19T04:06:36.017Z,19.67
2022-08-19T04:09:09.472Z,19.63
2022-08-19T04:11:44.821Z,19.60
2022-08-19T04:14:15.038Z,19.51
2022-08-19T04:16:42.388Z,19.49
2022-08-19T04:19:08.987Z,19.45
2022-08-19T04:21:35.859Z,19.47
2022-08-19T04:24:04.011Z,19.32
2022-08-19T04:26:36.537Z,19.41
2022-08-19T04:29:11.684Z,19.48
2022-08-19T04:31:39.689Z,19.41
2022-08-19T04:34:08.358Z,19.38
2022-08-19T04:36:37.617Z,19.47
2022-08-19T04:39:10.801Z,19.40
2022-08-19T04:41:56.385Z,19.40
2022-08-19T04:44:23.316Z,19.35
2022-08-19T04:46:51.987Z,19.32
2022-08-19T04:49:23.540Z,19.29
2022-08-19T04:51:52.362Z,19.28
2022-08-19T04:54:38.782Z,19.16
2022-08-19T04:57:07.790Z,19.28
2022-08-19T04:59:35.165Z,19.14
2022-08-19T05:02:01.711Z,19.07
2022-08-19T05:04:33.070Z,19.19
2022-08-19T05:07:01.629Z,19.20
2022-08-19T05:09:44.185Z,19.19
2022-08-19T05:12:17.191Z,19.17
2022-08-19T05:14:46.750Z,19.10
2022-08-19T05:17:31.288Z,19.17
2022-08-19T05:20:19.052Z,19.11
2022-08-19T05:22:47.491Z,19.18
2022-08-19T05:25:19.929Z,19.19
2022-08-19T05:27:47.015Z,19.20
2022-08-19T05:30:14.286Z,19.18
2022-08-19T05:32:41.812Z,19.23
2022-08-19T05:35:09.196Z,19.19
2022-08-19T05:37:35.967Z,19.23
2022-08-19T05:40:03.282Z,19.09
2022-08-19T05:42:30.067Z,19.02
2022-08-19T05:44:57.597Z,19.19
2022-08-19T05:47:24.128Z,19.07
2022-08-19T05:49:53.549Z,19.26
2022-08-19T05:52:26.101Z,19.27
2022-08-19T05:54:56.041Z,19.28
2022-08-19T05:57:24.002Z,19.17
2022-08-19T05:59:53.105Z,19.16
2022-08-19T06:02:28.101Z,19.25
2022-08-19T06:04:54.902Z,19.00
2022-08-19T06:07:21.578Z,19.16
2022-08-19T06:09:59.881Z,19.08
2022-08-19T06:12:35.759Z,19.35
2022-08-19T06:15:09.068Z,19.25
2022-08-19T06:17:36.318Z,19.29
2022-08-19T06:20:08.564Z,19.36
2022-08-19T06:22:40.134Z,19.40
2022-08-19T06:25:07.270Z,19.38
2022-08-19T06:27:34.530Z,19.39
2022-08-19T06:30:01.451Z,19.32
2022-08-19T06:32:28.061Z,19.40
2022-08-19T06:34:54.666Z,19.30
2022-08-19T06:37:22.702Z,19.41
2022-08-19T06:39:50.133Z,19.30
2022-08-19T06:42:19.557Z,19.40
2022-08-19T06:44:50.134Z,19.42
2022-08-19T06:47:23.922Z,19.39
2022-08-19T06:50:01.379Z,19.48
2022-08-19T06:52:36.689Z,19.55
2022-08-19T06:55:05.886Z,19.61
2022-08-19T06:57:33.696Z,19.68
2022-08-19T07:00:01.284Z,19.57
2022-08-19T07:02:28.047Z,19.65
2022-08-19T07:04:55.002Z,19.83
2022-08-19T07:07:22.084Z,19.92
2022-08-19T07:09:51.610Z,19.97
2022-08-19T07:12:25.465Z,19.97
2022-08-19T07:14:53.788Z,19.84
2022-08-19T07:17:21.302Z,19.78
2022-08-19T07:19:48.714Z,19.96
2022-08-19T07:22:16.115Z,20.12
2022-08-19T07:24:45.358Z,19.98
2022-08-19T07:27:18.168Z,20.21
2022-08-19T07:29:56.094Z,19.98
2022-08-19T07:32:26.970Z,20.03
2022-08-19T07:34:54.014Z,20.05
2022-08-19T07:37:20.686Z,20.17
2022-08-19T07:39:47.840Z,20.25
2022-08-19T07:42:15.421Z,20.15
2022-08-19T07:44:42.647Z,20.26
2022-08-19T07:47:50.120Z,20.16
2022-08-19T07:50:07.965Z,20.26
2022-08-19T07:52:36.963Z,20.32
2022-08-19T07:55:05.476Z,20.30
2022-08-19T07:57:32.174Z,20.25
2022-08-19T07:59:58.827Z,20.17
2022-08-19T08:02:25.408Z,20.13
2022-08-19T08:05:10.480Z,20.11
2022-08-19T08:08:02.893Z,20.19
2022-08-19T08:10:29.472Z,20.07
2022-08-19T08:13:10.248Z,19.99
2022-08-19T08:15:43.161Z,20.05
2022-08-19T08:18:11.980Z,19.96
2022-08-19T08:20:38.959Z,19.90
2022-08-19T08:23:24.791Z,19.94
2022-08-19T08:25:53.025Z,19.82
2022-08-19T08:28:20.197Z,19.95
2022-08-19T08:30:49.158Z,20.00
2022-08-19T08:33:33.205Z,19.98
2022-08-19T08:36:08.122Z,20.02
2022-08-19T08:38:39.870Z,19.93
2022-08-19T08:41:42.539Z,20.29
2022-08-19T08:44:32.662Z,20.41
2022-08-19T08:47:04.056Z,20.43
2022-08-19T08:49:40.514Z,20.69
2022-08-19T08:52:25.666Z,20.81
2022-08-19T08:55:01.026Z,20.90
2022-08-19T08:57:33.743Z,20.92
2022-08-19T09:00:15.396Z,21.06
2022-08-19T09:02:43.368Z,21.19
2022-08-19T09:05:16.497Z,21.38
2022-08-19T09:08:06.840Z,21.79
2022-08-19T09:10:45.162Z,22.27
2022-08-19T09:13:21.858Z,22.51
2022-08-19T09:16:11.194Z,22.55
2022-08-19T09:18:44.290Z,22.47
2022-08-19T09:21:11.481Z,22.45
2022-08-19T09:23:38.387Z,22.32
2022-08-19T09:26:16.538Z,22.43
2022-08-19T09:28:45.529Z,22.45
2022-08-19T09:31:21.613Z,22.28
2022-08-19T09:33:49.451Z,22.43
2022-08-19T09:36:34.405Z,22.41
2022-08-19T09:39:01.634Z,22.33
2022-08-19T09:41:28.672Z,22.30
2022-08-19T09:43:58.458Z,22.47
2022-08-19T09:46:29.386Z,22.45
2022-08-19T09:48:59.422Z,22.42
2022-08-19T09:51:34.241Z,22.46
2022-08-19T09:54:05.158Z,22.37
2022-08-19T09:56:33.065Z,22.41
2022-08-19T09:59:02.534Z,22.51
2022-08-19T10:01:31.572Z,22.51
2022-08-19T10:04:00.073Z,22.50
2022-08-19T10:06:45.655Z,22.62
2022-08-19T10:09:13.274Z,22.61
2022-08-19T10:11:53.980Z,22.77
2022-08-19T10:14:24.530Z,22.98
2022-08-19T10:16:52.470Z,23.17
2022-08-19T10:19:25.533Z,23.19
2022-08-19T10:21:52.480Z,23.36
2022-08-19T10:24:21.608Z,23.59
2022-08-19T10:26:55.792Z,23.70
2022-08-19T10:29:33.083Z,23.51
2022-08-19T10:32:09.527Z,24.08
2022-08-19T10:34:48.909Z,24.05
2022-08-19T10:37:29.109Z,23.86
2022-08-19T10:39:58.487Z,24.07
2022-08-19T10:42:25.446Z,24.21
2022-08-19T10:44:52.238Z,23.87
2022-08-19T10:47:25.739Z,23.88
2022-08-19T10:50:15.089Z,23.86
2022-08-19T10:52:49.110Z,23.62
2022-08-19T10:55:42.232Z,23.74
2022-08-19T10:58:17.548Z,23.85
2022-08-19T11:00:44.774Z,24.02
2022-08-19T11:03:11.702Z,24.09
2022-08-19T11:05:40.368Z,24.10
2022-08-19T11:08:22.248Z,23.95
2022-08-19T11:10:50.678Z,23.91
2022-08-19T11:13:17.255Z,23.71
2022-08-19T11:15:48.459Z,23.97
2022-08-19T11:18:15.183Z,23.59
2022-08-19T11:20:41.887Z,23.66
2022-08-19T11:23:08.711Z,23.94
2022-08-19T11:25:40.707Z,23.59
2022-08-19T11:28:07.366Z,23.89
2022-08-19T11:30:34.629Z,24.12
2022-08-19T11:33:02.076Z,24.11
2022-08-19T11:35:29.147Z,23.89
2022-08-19T11:37:58.475Z,23.94
2022-08-19T11:40:27.649Z,24.23
2022-08-19T11:42:57.817Z,24.30
2022-08-19T11:45:29.075Z,24.25
2022-08-19T11:47:56.401Z,24.94
2022-08-19T11:50:25.566Z,25.29
2022-08-19T11:52:56.007Z,24.92
2022-08-19T11:55:43.446Z,25.61
2022-08-19T11:58:18.711Z,25.46
2022-08-19T12:00:49.874Z,25.85
2022-08-19T12:03:16.551Z,26.48
2022-08-19T12:05:43.573Z,26.46
2022-08-19T12:08:10.154Z,26.51
2022-08-19T12:10:37.007Z,26.66
2022-08-19T12:13:03.921Z,26.50
2022-08-19T12:15:37.264Z,26.39
2022-08-19T12:18:05.146Z,26.40
2022-08-19T12:20:32.401Z,26.51
2022-08-19T12:23:03.793Z,26.44
2022-08-19T12:25:30.531Z,26.36
2022-08-19T12:27:57.826Z,26.28
2022-08-19T12:30:25.164Z,26.44
2022-08-19T12:32:52.323Z,26.78
2022-08-19T12:35:22.083Z,26.60
2022-08-19T12:37:57.037Z,26.54
2022-08-19T12:40:26.493Z,26.54
2022-08-19T12:42:54.335Z,26.70
2022-08-19T12:45:20.926Z,27.02
2022-08-19T12:47:47.886Z,27.35
2022-08-19T12:50:19.233Z,27.41
2022-08-19T12:52:48.591Z,27.62
2022-08-19T12:55:15.726Z,27.85
2022-08-19T12:57:42.457Z,27.87
2022-08-19T13:00:15.812Z,27.74
2022-08-19T13:02:46.803Z,27.51
2022-08-19T13:05:23.816Z,27.69
2022-08-19T13:07:53.710Z,27.68
2022-08-19T13:10:21.661Z,27.72
2022-08-19T13:12:51.261Z,27.78
2022-08-19T13:15:23.653Z,27.62
2022-08-19T13:17:53.424Z,27.65
2022-08-19T13:20:21.694Z,27.62
2022-08-19T13:22:49.288Z,27.57
2022-08-19T13:25:19.496Z,27.54
2022-08-19T13:27:47.613Z,27.47
2022-08-19T13:30:34.380Z,27.61
2022-08-19T13:33:12.897Z,27.65
2022-08-19T13:35:48.446Z,27.79
2022-08-19T13:38:21.409Z,27.76
2022-08-19T13:40:50.617Z,27.49
2022-08-19T13:43:22.793Z,27.71
2022-08-19T13:45:56.691Z,27.90
2022-08-19T13:48:24.588Z,28.06
2022-08-19T13:50:51.174Z,28.12
2022-08-19T13:53:17.810Z,28.16
2022-08-19T13:55:45.185Z,28.06
2022-08-19T13:58:12.806Z,27.85
2022-08-19T14:00:43.303Z,28.01
2022-08-19T14:03:10.353Z,27.87
2022-08-19T14:05:37.635Z,28.21
2022-08-19T14:08:04.582Z,28.19
2022-08-19T14:10:32.501Z,28.09
2022-08-19T14:13:01.486Z,28.12
2022-08-19T14:15:29.770Z,28.18
2022-08-19T14:17:57.019Z,28.27
2022-08-19T14:20:26.250Z,28.01
2022-08-19T14:22:55.051Z,28.10
2022-08-19T14:25:26.349Z,28.29
2022-08-19T14:27:53.409Z,28.38
2022-08-19T14:30:27.704Z,27.87
2022-08-19T14:32:55.631Z,27.99
2022-08-19T14:35:23.281Z,27.96
2022-08-19T14:37:51.271Z,27.73
2022-08-19T14:40:22.135Z,27.42
2022-08-19T14:42:49.589Z,27.49
2022-08-19T14:45:16.165Z,27.69
2022-08-19T14:47:42.992Z,27.89
2022-08-19T14:50:18.109Z,28.08
2022-08-19T14:52:46.577Z,28.07
2022-08-19T14:55:13.178Z,28.10
2022-08-19T14:57:41.919Z,28.28
2022-08-19T15:00:13.024Z,28.37
2022-08-19T15:02:40.244Z,28.43
2022-08-19T15:05:07.350Z,28.70
2022-08-19T15:07:33.895Z,28.72
2022-08-19T15:10:00.520Z,28.88
2022-08-19T15:12:27.064Z,29.07
2022-08-19T15:14:56.198Z,29.04
2022-08-19T15:17:43.581Z,29.09
2022-08-19T15:20:12.261Z,29.04
2022-08-19T15:22:39.018Z,29.09
2022-08-19T15:25:07.895Z,29.09
2022-08-19T15:27:36.820Z,29.05
2022-08-19T15:30:04.632Z,29.22
2022-08-19T15:32:31.531Z,29.07
2022-08-19T15:34:58.258Z,29.14
2022-08-19T15:37:25.263Z,28.81
2022-08-19T15:39:52.071Z,28.95
2022-08-19T15:42:28.077Z,28.97
2022-08-19T15:45:01.022Z,28.79
2022-08-19T15:47:35.260Z,28.96
2022-08-19T15:50:16.402Z,28.86
2022-08-19T15:52:50.391Z,29.04
2022-08-19T15:55:32.285Z,29.03
2022-08-19T15:58:29.842Z,29.04
2022-08-19T16:01:20.725Z,28.66
2022-08-19T16:04:14.344Z,28.83
2022-08-19T16:06:48.753Z,28.84
2022-08-19T16:09:17.655Z,28.64
2022-08-19T16:11:46.122Z,28.42
2022-08-19T16:14:14.785Z,28.30
2022-08-19T16:16:42.068Z,28.47
2022-08-19T16:19:10.507Z,28.37
2022-08-19T16:21:41.785Z,28.22
2022-08-19T16:24:10.541Z,28.18
2022-08-19T16:26:37.445Z,28.15
2022-08-19T16:29:08.787Z,28.08
2022-08-19T16:31:39.066Z,28.00
2022-08-19T16:34:06.462Z,27.87
2022-08-19T16:36:33.385Z,27.97
2022-08-19T16:39:00.828Z,28.05
2022-08-19T16:41:28.628Z,28.04
2022-08-19T16:43:55.812Z,28.11
2022-08-19T16:46:23.498Z,28.16
2022-08-19T16:48:54.195Z,27.72
2022-08-19T16:51:22.709Z,27.75
2022-08-19T16:53:51.993Z,27.59
2022-08-19T16:56:19.789Z,27.21
2022-08-19T16:58:46.417Z,27.11
2022-08-19T17:01:13.820Z,26.95
2022-08-19T17:03:40.444Z,26.70
2022-08-19T17:06:17.692Z,26.14
2022-08-19T17:08:51.610Z,25.99
2022-08-19T17:11:20.060Z,25.87
2022-08-19T17:13:47.927Z,25.70
2022-08-19T17:16:16.438Z,25.51
2022-08-19T17:18:43.064Z,25.23
2022-08-19T17:21:09.978Z,25.17
2022-08-19T17:23:42.985Z,25.06
2022-08-19T17:26:14.112Z,24.93
2022-08-19T17:28:50.138Z,24.77
2022-08-19T17:31:19.452Z,24.54
2022-08-19T17:33:48.371Z,24.18
2022-08-19T17:36:17.266Z,24.26
2022-08-19T17:38:44.299Z,23.96
2022-08-19T17:41:10.847Z,23.87
2022-08-19T17:43:42.797Z,23.75
2022-08-19T17:46:22.454Z,23.73
2022-08-19T17:48:52.977Z,23.60
2022-08-19T17:51:27.291Z,23.44
2022-08-19T17:53:54.450Z,23.44
2022-08-19T17:56:22.242Z,23.34
2022-08-19T17:58:57.698Z,23.27
2022-08-19T18:01:30.738Z,23.17
2022-08-19T18:04:16.038Z,23.09
2022-08-19T18:06:46.081Z,22.97
2022-08-19T18:09:20.771Z,22.87
2022-08-19T18:11:52.931Z,22.72
2022-08-19T18:14:20.526Z,22.71
2022-08-19T18:16:47.271Z,22.68
2022-08-19T18:19:13.818Z,22.58
2022-08-19T18:21:40.899Z,22.51
2022-08-19T18:24:08.000Z,22.44
2022-08-19T18:26:34.879Z,22.31
2022-08-19T18:29:02.010Z,22.00
2022-08-19T18:31:30.004Z,22.13
2022-08-19T18:33:56.753Z,22.03
2022-08-19T18:36:50.032Z,21.98
2022-08-19T18:39:29.402Z,21.89
2022-08-19T18:42:14.857Z,21.77
2022-08-19T18:45:00.474Z,21.68
2022-08-19T18:47:46.515Z,21.63
2022-08-19T18:50:13.880Z,21.47
2022-08-19T18:52:40.749Z,21.45
2022-08-19T18:55:07.739Z,21.32
2022-08-19T18:57:34.414Z,21.17
2022-08-19T19:00:02.694Z,21.08
2022-08-19T19:02:29.339Z,21.12
2022-08-19T19:04:56.139Z,20.97
2022-08-19T19:07:23.469Z,20.91
2022-08-19T19:09:52.719Z,20.88
2022-08-19T19:12:19.631Z,20.82
2022-08-19T19:14:49.584Z,20.66
2022-08-19T19:17:17.378Z,20.53
2022-08-19T19:19:44.622Z,20.43
2022-08-19T19:22:14.931Z,20.52
2022-08-19T19:24:45.433Z,20.45
2022-08-19T19:27:14.633Z,20.18
2022-08-19T19:29:42.222Z,20.17
2022-08-19T19:32:12.029Z,20.24
2022-08-19T19:34:38.974Z,20.18
2022-08-19T19:37:05.625Z,20.08
2022-08-19T19:39:45.392Z,19.94
2022-08-19T19:42:19.761Z,19.95
2022-08-19T19:44:49.297Z,19.94
2022-08-19T19:47:17.420Z,19.79
2022-08-19T19:50:10.734Z,19.72
2022-08-19T19:52:31.605Z,19.57
2022-08-19T19:54:58.246Z,19.41
2022-08-19T19:57:26.658Z,19.46
2022-08-19T19:59:54.153Z,19.56
2022-08-19T20:02:21.932Z,19.29
2022-08-19T20:04:50.433Z,19.32
2022-08-19T20:07:17.935Z,19.25
2022-08-19T20:09:59.303Z,19.31
2022-08-19T20:12:27.063Z,19.20
2022-08-19T20:14:53.810Z,19.23
2022-08-19T20:17:20.630Z,19.07
2022-08-19T20:19:47.921Z,19.14
2022-08-19T20:22:14.873Z,19.07
2022-08-19T20:24:42.707Z,18.95
2022-08-19T20:27:10.794Z,18.94
2022-08-19T20:29:41.392Z,18.80
2022-08-19T20:32:09.830Z,18.81
2022-08-19T20:34:37.206Z,18.79
2022-08-19T20:37:04.029Z,18.74
2022-08-19T20:39:30.958Z,18.73
2022-08-19T20:41:57.497Z,18.53
2022-08-19T20:44:25.406Z,18.54
2022-08-19T20:46:55.601Z,18.51
2022-08-19T20:49:26.810Z,18.29
2022-08-19T20:51:54.867Z,18.49
2022-08-19T20:54:21.726Z,18.45
2022-08-19T20:56:48.277Z,18.41
2022-08-19T20:59:14.964Z,18.24
2022-08-19T21:01:41.606Z,18.34
2022-08-19T21:04:08.099Z,18.27
2022-08-19T21:06:34.724Z,18.10
2022-08-19T21:09:01.229Z,18.13
2022-08-19T21:11:27.975Z,18.11
2022-08-19T21:13:54.503Z,17.94
2022-08-19T21:16:21.025Z,18.07
2022-08-19T21:18:48.333Z,17.97
2022-08-19T21:21:15.866Z,17.96
2022-08-19T21:23:44.146Z,17.87
2022-08-19T21:26:10.965Z,17.86
2022-08-19T21:28:37.674Z,17.80
2022-08-19T21:31:06.182Z,17.76
2022-08-19T21:33:32.893Z,17.68
2022-08-19T21:36:00.140Z,17.55
2022-08-19T21:38:26.975Z,17.63
2022-08-19T21:40:53.629Z,17.57
2022-08-19T21:43:20.242Z,17.52
2022-08-19T21:45:47.776Z,17.48
2022-08-19T21:48:15.118Z,17.46
2022-08-19T21:50:43.405Z,17.38
2022-08-19T21:53:17.687Z,17.37
2022-08-19T21:55:46.098Z,17.36
2022-08-19T21:58:19.595Z,17.31
2022-08-19T22:00:55.239Z,17.26
2022-08-19T22:03:22.147Z,17.20
2022-08-19T22:05:48.755Z,17.17
2022-08-19T22:08:15.448Z,17.08
2022-08-19T22:10:42.006Z,17.08
2022-08-19T22:13:09.523Z,17.01
2022-08-19T22:15:36.084Z,16.93
2022-08-19T22:18:02.806Z,16.79
2022-08-19T22:20:31.615Z,16.88
2022-08-19T22:23:01.661Z,16.78
2022-08-19T22:25:40.678Z,16.75
2022-08-19T22:28:12.072Z,16.73
2022-08-19T22:30:41.745Z,16.67
2022-08-19T22:33:12.533Z,16.64
2022-08-19T22:35:40.449Z,16.61
2022-08-19T22:38:08.514Z,16.57
2022-08-19T22:40:39.520Z,16.52
2022-08-19T22:43:18.536Z,16.49
2022-08-19T22:45:49.048Z,16.44
2022-08-19T22:48:18.715Z,16.45
2022-08-19T22:51:08.027Z,16.41
2022-08-19T22:53:36.937Z,16.37
2022-08-19T22:56:06.149Z,16.33
2022-08-19T22:58:32.813Z,16.29
2022-08-19T23:01:00.280Z,16.20
2022-08-19T23:03:27.037Z,16.16
2022-08-19T23:05:56.087Z,16.11
2022-08-19T23:08:23.421Z,16.09
2022-08-19T23:10:50.279Z,15.93
2022-08-19T23:13:17.841Z,15.82
2022-08-19T23:15:46.331Z,15.99
2022-08-19T23:18:14.267Z,15.96
2022-08-19T23:20:43.267Z,15.94
2022-08-19T23:23:13.339Z,15.90
2022-08-19T23:25:40.693Z,15.89
2022-08-19T23:28:25.897Z,15.84
2022-08-19T23:30:53.457Z,15.69
2022-08-19T23:33:41.097Z,15.63
2022-08-19T23:36:17.427Z,15.73
2022-08-19T23:38:46.627Z,15.69
2022-08-19T23:41:15.353Z,15.63
2022-08-19T23:43:42.996Z,15.60
2022-08-19T23:46:12.350Z,15.52
2022-08-19T23:48:39.804Z,15.50
2022-08-19T23:51:09.961Z,15.46
2022-08-19T23:53:38.962Z,15.41
2022-08-19T23:56:07.399Z,15.32
2022-08-19T23:58:37.533Z,15.28
